sensor_id;sensor_type;location;lat;lon;timestamp;temperature;humidity
3699;DHT22;1865;50.918;7.092;2023-04-01T00:02:01;15.00;48.90
3699;DHT22;1865;50.918;7.092;2023-04-01T00:04:26;14.80;49.60
3699;DHT22;1865;50.918;7.092;2023-04-01T00:06:52;14.90;49.40
3699;DHT22;1865;50.918;7.092;2023-04-01T00:09:18;15.00;48.90
3699;DHT22;1865;50.918;7.092;2023-04-01T00:11:43;15.10;48.80
3699;DHT22;1865;50.918;7.092;2023-04-01T00:14:10;15.10;48.90
3699;DHT22;1865;50.918;7.092;2023-04-01T00:16:36;15.10;49.00
3699;DHT22;1865;50.918;7.092;2023-04-01T00:19:03;15.10;49.10
3699;DHT22;1865;50.918;7.092;2023-04-01T00:21:28;15.10;48.50
3699;DHT22;1865;50.918;7.092;2023-04-01T00:23:54;15.20;48.50
3699;DHT22;1865;50.918;7.092;2023-04-01T00:26:20;15.30;48.00
3699;DHT22;1865;50.918;7.092;2023-04-01T00:28:47;15.20;48.00
3699;DHT22;1865;50.918;7.092;2023-04-01T00:31:13;15.20;48.30
3699;DHT22;1865;50.918;7.092;2023-04-01T00:33:40;15.20;47.50
3699;DHT22;1865;50.918;7.092;2023-04-01T00:36:08;15.10;48.40
3699;DHT22;1865;50.918;7.092;2023-04-01T00:38:34;15.20;48.20
3699;DHT22;1865;50.918;7.092;2023-04-01T00:41:00;15.20;48.00
3699;DHT22;1865;50.918;7.092;2023-04-01T00:43:26;15.10;48.70
3699;DHT22;1865;50.918;7.092;2023-04-01T00:45:51;15.10;48.50
3699;DHT22;1865;50.918;7.092;2023-04-01T00:48:23;15.10;48.70
3699;DHT22;1865;50.918;7.092;2023-04-01T00:50:58;15.00;48.30
3699;DHT22;1865;50.918;7.092;2023-04-01T00:53:26;15.10;48.50
3699;DHT22;1865;50.918;7.092;2023-04-01T00:56:14;15.10;48.60
3699;DHT22;1865;50.918;7.092;2023-04-01T00:58:44;15.10;48.30
3699;DHT22;1865;50.918;7.092;2023-04-01T01:01:11;15.10;48.90
3699;DHT22;1865;50.918;7.092;2023-04-01T01:03:37;15.10;48.40
3699;DHT22;1865;50.918;7.092;2023-04-01T01:06:10;15.10;48.90
3699;DHT22;1865;50.918;7.092;2023-04-01T01:08:46;15.10;49.10
3699;DHT22;1865;50.918;7.092;2023-04-01T01:11:22;15.10;48.90
3699;DHT22;1865;50.918;7.092;2023-04-01T01:16:43;15.00;49.00
3699;DHT22;1865;50.918;7.092;2023-04-01T01:22:52;15.10;48.30
3699;DHT22;1865;50.918;7.092;2023-04-01T01:25:40;15.00;48.60
3699;DHT22;1865;50.918;7.092;2023-04-01T01:28:29;15.10;48.60
3699;DHT22;1865;50.918;7.092;2023-04-01T01:36:26;15.30;48.00
3699;DHT22;1865;50.918;7.092;2023-04-01T01:38:55;15.20;47.70
3699;DHT22;1865;50.918;7.092;2023-04-01T01:41:22;15.10;48.20
3699;DHT22;1865;50.918;7.092;2023-04-01T01:43:53;15.10;48.60
3699;DHT22;1865;50.918;7.092;2023-04-01T01:46:22;15.10;48.30
3699;DHT22;1865;50.918;7.092;2023-04-01T01:48:49;15.30;48.00
3699;DHT22;1865;50.918;7.092;2023-04-01T01:51:17;15.10;47.80
3699;DHT22;1865;50.918;7.092;2023-04-01T01:53:43;15.10;48.50
3699;DHT22;1865;50.918;7.092;2023-04-01T01:56:10;15.20;48.30
3699;DHT22;1865;50.918;7.092;2023-04-01T01:58:47;15.10;48.70
3699;DHT22;1865;50.918;7.092;2023-04-01T02:01:17;14.90;49.50
3699;DHT22;1865;50.918;7.092;2023-04-01T02:03:45;14.90;50.00
3699;DHT22;1865;50.918;7.092;2023-04-01T02:06:15;15.00;49.80
3699;DHT22;1865;50.918;7.092;2023-04-01T02:09:03;15.00;49.80
3699;DHT22;1865;50.918;7.092;2023-04-01T02:11:38;15.00;50.00
3699;DHT22;1865;50.918;7.092;2023-04-01T02:14:08;14.90;49.80
3699;DHT22;1865;50.918;7.092;2023-04-01T02:19:17;14.80;51.40
3699;DHT22;1865;50.918;7.092;2023-04-01T02:21:50;14.80;51.70
3699;DHT22;1865;50.918;7.092;2023-04-01T02:24:19;14.60;52.80
3699;DHT22;1865;50.918;7.092;2023-04-01T02:26:49;14.50;53.90
3699;DHT22;1865;50.918;7.092;2023-04-01T02:29:18;14.50;54.10
3699;DHT22;1865;50.918;7.092;2023-04-01T02:31:45;14.40;54.40
3699;DHT22;1865;50.918;7.092;2023-04-01T02:34:11;14.20;55.30
3699;DHT22;1865;50.918;7.092;2023-04-01T02:36:37;14.30;55.20
3699;DHT22;1865;50.918;7.092;2023-04-01T02:39:04;14.30;55.50
3699;DHT22;1865;50.918;7.092;2023-04-01T02:41:30;14.30;55.60
3699;DHT22;1865;50.918;7.092;2023-04-01T02:43:56;14.30;55.30
3699;DHT22;1865;50.918;7.092;2023-04-01T02:46:24;14.30;55.50
3699;DHT22;1865;50.918;7.092;2023-04-01T02:48:49;14.30;55.80
3699;DHT22;1865;50.918;7.092;2023-04-01T02:51:15;14.10;55.90
3699;DHT22;1865;50.918;7.092;2023-04-01T02:53:40;14.20;56.50
3699;DHT22;1865;50.918;7.092;2023-04-01T02:56:06;14.10;56.70
3699;DHT22;1865;50.918;7.092;2023-04-01T02:58:31;14.10;56.50
3699;DHT22;1865;50.918;7.092;2023-04-01T03:00:57;14.00;57.40
3699;DHT22;1865;50.918;7.092;2023-04-01T03:03:23;14.10;56.80
3699;DHT22;1865;50.918;7.092;2023-04-01T03:05:48;14.10;56.50
3699;DHT22;1865;50.918;7.092;2023-04-01T03:08:14;14.10;56.50
3699;DHT22;1865;50.918;7.092;2023-04-01T03:10:39;14.00;56.90
3699;DHT22;1865;50.918;7.092;2023-04-01T03:13:05;14.00;57.20
3699;DHT22;1865;50.918;7.092;2023-04-01T03:15:31;13.90;57.20
3699;DHT22;1865;50.918;7.092;2023-04-01T03:17:57;13.90;57.30
3699;DHT22;1865;50.918;7.092;2023-04-01T03:20:22;13.90;57.20
3699;DHT22;1865;50.918;7.092;2023-04-01T03:22:48;13.90;57.50
3699;DHT22;1865;50.918;7.092;2023-04-01T03:25:13;13.90;57.10
3699;DHT22;1865;50.918;7.092;2023-04-01T03:27:39;14.00;57.30
3699;DHT22;1865;50.918;7.092;2023-04-01T03:30:06;14.00;57.60
3699;DHT22;1865;50.918;7.092;2023-04-01T03:32:32;13.90;57.70
3699;DHT22;1865;50.918;7.092;2023-04-01T03:34:57;14.00;58.00
3699;DHT22;1865;50.918;7.092;2023-04-01T03:37:23;14.00;57.50
3699;DHT22;1865;50.918;7.092;2023-04-01T03:39:49;14.00;57.30
3699;DHT22;1865;50.918;7.092;2023-04-01T03:42:15;13.90;57.40
3699;DHT22;1865;50.918;7.092;2023-04-01T03:44:40;14.00;57.30
3699;DHT22;1865;50.918;7.092;2023-04-01T03:47:06;14.00;56.60
3699;DHT22;1865;50.918;7.092;2023-04-01T03:49:32;13.80;57.70
3699;DHT22;1865;50.918;7.092;2023-04-01T03:51:58;13.80;58.10
3699;DHT22;1865;50.918;7.092;2023-04-01T03:54:24;13.80;57.80
3699;DHT22;1865;50.918;7.092;2023-04-01T03:56:49;13.90;57.20
3699;DHT22;1865;50.918;7.092;2023-04-01T03:59:15;13.90;56.80
3699;DHT22;1865;50.918;7.092;2023-04-01T04:01:40;13.90;56.90
3699;DHT22;1865;50.918;7.092;2023-04-01T04:04:06;14.00;56.80
3699;DHT22;1865;50.918;7.092;2023-04-01T04:06:33;13.90;57.20
3699;DHT22;1865;50.918;7.092;2023-04-01T04:08:58;13.90;57.20
3699;DHT22;1865;50.918;7.092;2023-04-01T04:11:24;14.00;56.40
3699;DHT22;1865;50.918;7.092;2023-04-01T04:13:51;14.00;56.40
3699;DHT22;1865;50.918;7.092;2023-04-01T04:16:17;14.10;55.80
3699;DHT22;1865;50.918;7.092;2023-04-01T04:18:43;14.10;55.40
3699;DHT22;1865;50.918;7.092;2023-04-01T04:21:12;14.10;55.60
3699;DHT22;1865;50.918;7.092;2023-04-01T04:23:39;14.20;55.40
3699;DHT22;1865;50.918;7.092;2023-04-01T04:26:07;14.10;54.50
3699;DHT22;1865;50.918;7.092;2023-04-01T04:28:33;14.20;55.00
3699;DHT22;1865;50.918;7.092;2023-04-01T04:30:59;14.20;54.80
3699;DHT22;1865;50.918;7.092;2023-04-01T04:33:25;14.20;54.70
3699;DHT22;1865;50.918;7.092;2023-04-01T04:35:51;14.20;54.70
3699;DHT22;1865;50.918;7.092;2023-04-01T04:38:19;14.30;55.00
3699;DHT22;1865;50.918;7.092;2023-04-01T04:40:45;14.20;55.10
3699;DHT22;1865;50.918;7.092;2023-04-01T04:43:11;14.30;55.20
3699;DHT22;1865;50.918;7.092;2023-04-01T04:45:38;14.40;55.10
3699;DHT22;1865;50.918;7.092;2023-04-01T04:48:03;14.30;55.20
3699;DHT22;1865;50.918;7.092;2023-04-01T04:50:29;14.30;55.10
3699;DHT22;1865;50.918;7.092;2023-04-01T04:52:54;14.30;55.10
3699;DHT22;1865;50.918;7.092;2023-04-01T04:55:20;14.30;55.00
3699;DHT22;1865;50.918;7.092;2023-04-01T04:57:46;14.30;55.20
3699;DHT22;1865;50.918;7.092;2023-04-01T05:00:11;14.20;56.30
3699;DHT22;1865;50.918;7.092;2023-04-01T05:02:37;14.30;55.70
3699;DHT22;1865;50.918;7.092;2023-04-01T05:05:03;14.40;55.90
3699;DHT22;1865;50.918;7.092;2023-04-01T05:07:29;14.30;55.70
3699;DHT22;1865;50.918;7.092;2023-04-01T05:09:55;14.20;56.20
3699;DHT22;1865;50.918;7.092;2023-04-01T05:12:20;14.20;56.20
3699;DHT22;1865;50.918;7.092;2023-04-01T05:14:46;14.20;56.30
3699;DHT22;1865;50.918;7.092;2023-04-01T05:17:12;14.20;56.50
3699;DHT22;1865;50.918;7.092;2023-04-01T05:19:38;14.20;56.80
3699;DHT22;1865;50.918;7.092;2023-04-01T05:22:05;14.10;57.00
3699;DHT22;1865;50.918;7.092;2023-04-01T05:24:31;14.20;57.40
3699;DHT22;1865;50.918;7.092;2023-04-01T05:26:56;14.10;57.10
3699;DHT22;1865;50.918;7.092;2023-04-01T05:29:23;14.10;57.70
3699;DHT22;1865;50.918;7.092;2023-04-01T05:31:49;14.20;57.20
3699;DHT22;1865;50.918;7.092;2023-04-01T05:34:14;14.30;57.10
3699;DHT22;1865;50.918;7.092;2023-04-01T05:36:40;14.20;57.50
3699;DHT22;1865;50.918;7.092;2023-04-01T05:39:07;14.20;57.10
3699;DHT22;1865;50.918;7.092;2023-04-01T05:41:35;14.20;57.60
3699;DHT22;1865;50.918;7.092;2023-04-01T05:44:01;14.10;57.90
3699;DHT22;1865;50.918;7.092;2023-04-01T05:46:27;14.10;58.10
3699;DHT22;1865;50.918;7.092;2023-04-01T05:48:52;14.20;57.90
3699;DHT22;1865;50.918;7.092;2023-04-01T05:51:18;14.20;57.80
3699;DHT22;1865;50.918;7.092;2023-04-01T05:53:44;14.20;58.20
3699;DHT22;1865;50.918;7.092;2023-04-01T05:56:09;14.20;57.80
3699;DHT22;1865;50.918;7.092;2023-04-01T05:58:36;14.20;58.00
3699;DHT22;1865;50.918;7.092;2023-04-01T06:01:09;14.20;58.30
3699;DHT22;1865;50.918;7.092;2023-04-01T06:03:36;14.10;58.20
3699;DHT22;1865;50.918;7.092;2023-04-01T06:06:02;14.10;58.60
3699;DHT22;1865;50.918;7.092;2023-04-01T06:08:30;14.20;58.70
3699;DHT22;1865;50.918;7.092;2023-04-01T06:17:01;14.20;58.60
3699;DHT22;1865;50.918;7.092;2023-04-01T06:31:22;14.10;59.20
3699;DHT22;1865;50.918;7.092;2023-04-01T06:42:54;14.10;60.00
3699;DHT22;1865;50.918;7.092;2023-04-01T06:45:44;14.20;59.60
3699;DHT22;1865;50.918;7.092;2023-04-01T06:48:50;14.20;59.30
3699;DHT22;1865;50.918;7.092;2023-04-01T06:51:32;14.20;59.80
3699;DHT22;1865;50.918;7.092;2023-04-01T06:54:13;14.30;59.50
3699;DHT22;1865;50.918;7.092;2023-04-01T06:56:44;14.40;59.20
3699;DHT22;1865;50.918;7.092;2023-04-01T06:59:19;14.40;58.90
3699;DHT22;1865;50.918;7.092;2023-04-01T07:01:50;14.50;59.00
3699;DHT22;1865;50.918;7.092;2023-04-01T07:04:25;14.40;58.40
3699;DHT22;1865;50.918;7.092;2023-04-01T07:07:00;14.40;59.10
3699;DHT22;1865;50.918;7.092;2023-04-01T07:09:37;14.40;58.20
3699;DHT22;1865;50.918;7.092;2023-04-01T07:12:18;14.40;59.10
3699;DHT22;1865;50.918;7.092;2023-04-01T07:14:48;14.50;58.50
3699;DHT22;1865;50.918;7.092;2023-04-01T07:17:25;14.60;58.80
3699;DHT22;1865;50.918;7.092;2023-04-01T07:22:42;14.60;58.60
3699;DHT22;1865;50.918;7.092;2023-04-01T07:25:18;14.40;58.60
3699;DHT22;1865;50.918;7.092;2023-04-01T07:27:46;14.40;58.90
3699;DHT22;1865;50.918;7.092;2023-04-01T07:30:17;14.40;58.50
3699;DHT22;1865;50.918;7.092;2023-04-01T07:32:49;14.40;58.90
3699;DHT22;1865;50.918;7.092;2023-04-01T07:35:28;14.40;58.80
3699;DHT22;1865;50.918;7.092;2023-04-01T07:38:05;14.40;58.70
3699;DHT22;1865;50.918;7.092;2023-04-01T07:43:46;14.20;59.60
3699;DHT22;1865;50.918;7.092;2023-04-01T07:46:39;13.90;59.80
3699;DHT22;1865;50.918;7.092;2023-04-01T07:49:33;13.90;61.00
3699;DHT22;1865;50.918;7.092;2023-04-01T07:52:08;14.10;61.10
3699;DHT22;1865;50.918;7.092;2023-04-01T07:55:02;14.20;60.00
3699;DHT22;1865;50.918;7.092;2023-04-01T08:05:54;14.40;59.90
3699;DHT22;1865;50.918;7.092;2023-04-01T08:08:42;14.50;59.30
3699;DHT22;1865;50.918;7.092;2023-04-01T08:14:08;14.30;59.90
3699;DHT22;1865;50.918;7.092;2023-04-01T08:16:48;14.10;60.90
3699;DHT22;1865;50.918;7.092;2023-04-01T08:19:41;14.10;61.00
3699;DHT22;1865;50.918;7.092;2023-04-01T08:22:34;14.00;61.70
3699;DHT22;1865;50.918;7.092;2023-04-01T08:25:01;14.00;62.00
3699;DHT22;1865;50.918;7.092;2023-04-01T08:27:37;14.00;63.60
3699;DHT22;1865;50.918;7.092;2023-04-01T08:33:12;14.10;62.10
3699;DHT22;1865;50.918;7.092;2023-04-01T08:35:53;14.00;62.60
3699;DHT22;1865;50.918;7.092;2023-04-01T08:38:32;14.20;62.40
3699;DHT22;1865;50.918;7.092;2023-04-01T08:41:10;14.20;61.90
3699;DHT22;1865;50.918;7.092;2023-04-01T08:44:10;14.10;62.40
3699;DHT22;1865;50.918;7.092;2023-04-01T08:51:54;14.30;61.20
3699;DHT22;1865;50.918;7.092;2023-04-01T09:00:22;14.30;61.70
3699;DHT22;1865;50.918;7.092;2023-04-01T09:05:52;14.20;63.10
3699;DHT22;1865;50.918;7.092;2023-04-01T09:11:27;14.40;62.30
3699;DHT22;1865;50.918;7.092;2023-04-01T09:17:30;14.40;61.30
3699;DHT22;1865;50.918;7.092;2023-04-01T09:28:24;14.50;60.90
3699;DHT22;1865;50.918;7.092;2023-04-01T09:31:10;14.20;60.90
3699;DHT22;1865;50.918;7.092;2023-04-01T09:36:43;14.30;62.50
3699;DHT22;1865;50.918;7.092;2023-04-01T09:39:56;14.30;62.50
3699;DHT22;1865;50.918;7.092;2023-04-01T09:50:44;14.40;62.00
3699;DHT22;1865;50.918;7.092;2023-04-01T09:59:08;14.30;62.50
3699;DHT22;1865;50.918;7.092;2023-04-01T10:05:04;14.50;61.60
3699;DHT22;1865;50.918;7.092;2023-04-01T10:19:07;14.60;60.50
3699;DHT22;1865;50.918;7.092;2023-04-01T10:24:29;14.30;61.10
3699;DHT22;1865;50.918;7.092;2023-04-01T10:27:06;14.10;61.40
3699;DHT22;1865;50.918;7.092;2023-04-01T10:30:17;14.10;62.70
3699;DHT22;1865;50.918;7.092;2023-04-01T10:36:08;14.60;60.60
3699;DHT22;1865;50.918;7.092;2023-04-01T10:38:58;14.80;60.70
3699;DHT22;1865;50.918;7.092;2023-04-01T10:41:46;15.00;60.20
3699;DHT22;1865;50.918;7.092;2023-04-01T10:53:42;14.80;58.90
3699;DHT22;1865;50.918;7.092;2023-04-01T10:56:34;14.60;59.30
3699;DHT22;1865;50.918;7.092;2023-04-01T11:04:56;14.70;60.20
3699;DHT22;1865;50.918;7.092;2023-04-01T11:10:59;14.60;59.80
3699;DHT22;1865;50.918;7.092;2023-04-01T11:36:15;15.10;58.50
3699;DHT22;1865;50.918;7.092;2023-04-01T11:39:03;15.20;57.30
3699;DHT22;1865;50.918;7.092;2023-04-01T11:42:09;15.30;56.90
3699;DHT22;1865;50.918;7.092;2023-04-01T11:44:46;15.40;57.20
3699;DHT22;1865;50.918;7.092;2023-04-01T11:47:24;15.40;56.30
3699;DHT22;1865;50.918;7.092;2023-04-01T12:01:52;15.20;57.00
3699;DHT22;1865;50.918;7.092;2023-04-01T12:04:36;15.20;58.10
3699;DHT22;1865;50.918;7.092;2023-04-01T12:10:18;15.20;58.00
3699;DHT22;1865;50.918;7.092;2023-04-01T12:12:59;14.90;57.00
3699;DHT22;1865;50.918;7.092;2023-04-01T12:18:24;15.00;56.90
3699;DHT22;1865;50.918;7.092;2023-04-01T12:21:00;15.10;56.80
3699;DHT22;1865;50.918;7.092;2023-04-01T12:23:33;15.20;57.30
3699;DHT22;1865;50.918;7.092;2023-04-01T12:26:29;15.30;57.20
3699;DHT22;1865;50.918;7.092;2023-04-01T12:31:51;15.30;55.70
3699;DHT22;1865;50.918;7.092;2023-04-01T12:37:21;15.70;54.80
3699;DHT22;1865;50.918;7.092;2023-04-01T12:55:42;15.50;54.90
3699;DHT22;1865;50.918;7.092;2023-04-01T12:58:37;15.40;55.50
3699;DHT22;1865;50.918;7.092;2023-04-01T13:10:06;15.80;54.70
3699;DHT22;1865;50.918;7.092;2023-04-01T13:12:51;15.70;54.20
3699;DHT22;1865;50.918;7.092;2023-04-01T13:18:37;15.50;55.20
3699;DHT22;1865;50.918;7.092;2023-04-01T13:21:12;15.40;55.00
3699;DHT22;1865;50.918;7.092;2023-04-01T13:24:18;15.40;55.00
3699;DHT22;1865;50.918;7.092;2023-04-01T13:29:32;15.40;55.30
3699;DHT22;1865;50.918;7.092;2023-04-01T13:34:46;15.40;55.70
3699;DHT22;1865;50.918;7.092;2023-04-01T13:37:31;15.60;55.20
3699;DHT22;1865;50.918;7.092;2023-04-01T13:40:28;15.70;54.00
3699;DHT22;1865;50.918;7.092;2023-04-01T13:43:01;15.80;53.90
3699;DHT22;1865;50.918;7.092;2023-04-01T13:45:46;15.60;54.20
3699;DHT22;1865;50.918;7.092;2023-04-01T13:59:37;15.80;54.20
3699;DHT22;1865;50.918;7.092;2023-04-01T14:02:35;15.50;54.50
3699;DHT22;1865;50.918;7.092;2023-04-01T14:08:20;15.50;55.80
3699;DHT22;1865;50.918;7.092;2023-04-01T14:13:31;15.60;56.00
3699;DHT22;1865;50.918;7.092;2023-04-01T14:21:55;15.30;56.20
3699;DHT22;1865;50.918;7.092;2023-04-01T14:27:22;15.50;56.70
3699;DHT22;1865;50.918;7.092;2023-04-01T14:30:35;15.60;57.50
3699;DHT22;1865;50.918;7.092;2023-04-01T14:32:51;15.50;57.10
3699;DHT22;1865;50.918;7.092;2023-04-01T14:41:12;15.40;57.50
3699;DHT22;1865;50.918;7.092;2023-04-01T14:43:55;15.50;57.80
3699;DHT22;1865;50.918;7.092;2023-04-01T14:46:38;15.50;57.50
3699;DHT22;1865;50.918;7.092;2023-04-01T14:49:20;15.60;57.90
3699;DHT22;1865;50.918;7.092;2023-04-01T14:51:47;15.70;56.90
3699;DHT22;1865;50.918;7.092;2023-04-01T14:54:16;15.60;57.10
3699;DHT22;1865;50.918;7.092;2023-04-01T14:57:08;15.80;57.70
3699;DHT22;1865;50.918;7.092;2023-04-01T14:59:40;15.70;57.10
3699;DHT22;1865;50.918;7.092;2023-04-01T15:02:18;15.60;57.60
3699;DHT22;1865;50.918;7.092;2023-04-01T15:08:01;15.70;57.50
3699;DHT22;1865;50.918;7.092;2023-04-01T15:13:49;15.20;57.80
3699;DHT22;1865;50.918;7.092;2023-04-01T15:19:38;15.60;58.00
3699;DHT22;1865;50.918;7.092;2023-04-01T15:30:12;15.50;57.40
3699;DHT22;1865;50.918;7.092;2023-04-01T15:35:27;15.70;56.70
3699;DHT22;1865;50.918;7.092;2023-04-01T15:38:08;15.60;56.60
3699;DHT22;1865;50.918;7.092;2023-04-01T15:40:44;15.70;56.30
3699;DHT22;1865;50.918;7.092;2023-04-01T15:43:43;15.60;56.30
3699;DHT22;1865;50.918;7.092;2023-04-01T15:49:11;15.50;57.40
3699;DHT22;1865;50.918;7.092;2023-04-01T15:51:48;15.70;56.80
3699;DHT22;1865;50.918;7.092;2023-04-01T15:54:45;15.40;56.30
3699;DHT22;1865;50.918;7.092;2023-04-01T16:05:42;15.40;56.40
3699;DHT22;1865;50.918;7.092;2023-04-01T16:08:36;15.30;54.70
3699;DHT22;1865;50.918;7.092;2023-04-01T16:11:43;15.30;54.80
3699;DHT22;1865;50.918;7.092;2023-04-01T16:14:51;15.50;55.20
3699;DHT22;1865;50.918;7.092;2023-04-01T16:20:35;15.20;54.60
3699;DHT22;1865;50.918;7.092;2023-04-01T16:33:57;15.50;55.40
3699;DHT22;1865;50.918;7.092;2023-04-01T16:36:41;15.50;55.60
3699;DHT22;1865;50.918;7.092;2023-04-01T16:44:54;15.10;56.30
3699;DHT22;1865;50.918;7.092;2023-04-01T16:47:39;14.80;57.90
3699;DHT22;1865;50.918;7.092;2023-04-01T16:52:53;15.00;56.60
3699;DHT22;1865;50.918;7.092;2023-04-01T16:55:44;14.80;57.30
3699;DHT22;1865;50.918;7.092;2023-04-01T16:58:20;15.10;57.60
3699;DHT22;1865;50.918;7.092;2023-04-01T17:00:55;15.00;57.30
3699;DHT22;1865;50.918;7.092;2023-04-01T17:03:36;15.00;57.80
3699;DHT22;1865;50.918;7.092;2023-04-01T17:11:40;14.70;58.50
3699;DHT22;1865;50.918;7.092;2023-04-01T17:14:23;14.60;59.10
3699;DHT22;1865;50.918;7.092;2023-04-01T17:25:47;14.80;59.40
3699;DHT22;1865;50.918;7.092;2023-04-01T17:28:17;14.70;59.60
3699;DHT22;1865;50.918;7.092;2023-04-01T17:30:58;14.70;59.40
3699;DHT22;1865;50.918;7.092;2023-04-01T17:36:45;14.70;60.20
3699;DHT22;1865;50.918;7.092;2023-04-01T17:42:15;14.50;59.90
3699;DHT22;1865;50.918;7.092;2023-04-01T17:50:23;14.20;62.10
3699;DHT22;1865;50.918;7.092;2023-04-01T17:55:42;14.30;60.80
3699;DHT22;1865;50.918;7.092;2023-04-01T17:58:18;14.20;61.50
3699;DHT22;1865;50.918;7.092;2023-04-01T18:01:12;14.10;62.40
3699;DHT22;1865;50.918;7.092;2023-04-01T18:04:34;14.10;62.70
3699;DHT22;1865;50.918;7.092;2023-04-01T18:07:18;14.00;61.80
3699;DHT22;1865;50.918;7.092;2023-04-01T18:17:41;14.20;61.80
3699;DHT22;1865;50.918;7.092;2023-04-01T18:20:24;14.20;62.60
3699;DHT22;1865;50.918;7.092;2023-04-01T18:22:58;14.10;62.10
3699;DHT22;1865;50.918;7.092;2023-04-01T18:25:40;14.20;62.50
3699;DHT22;1865;50.918;7.092;2023-04-01T18:28:18;14.10;62.30
3699;DHT22;1865;50.918;7.092;2023-04-01T18:31:15;14.20;61.30
3699;DHT22;1865;50.918;7.092;2023-04-01T18:36:19;14.00;62.10
3699;DHT22;1865;50.918;7.092;2023-04-01T18:38:54;14.00;62.00
3699;DHT22;1865;50.918;7.092;2023-04-01T18:44:29;14.10;62.20
3699;DHT22;1865;50.918;7.092;2023-04-01T18:52:43;14.20;61.30
3699;DHT22;1865;50.918;7.092;2023-04-01T18:55:51;14.30;61.00
3699;DHT22;1865;50.918;7.092;2023-04-01T18:58:45;14.20;61.00
3699;DHT22;1865;50.918;7.092;2023-04-01T19:04:21;14.20;61.30
3699;DHT22;1865;50.918;7.092;2023-04-01T19:06:53;14.00;61.80
3699;DHT22;1865;50.918;7.092;2023-04-01T19:12:23;14.10;61.40
3699;DHT22;1865;50.918;7.092;2023-04-01T19:18:06;14.20;61.50
3699;DHT22;1865;50.918;7.092;2023-04-01T19:20:51;14.10;61.50
3699;DHT22;1865;50.918;7.092;2023-04-01T19:23:47;14.20;61.50
3699;DHT22;1865;50.918;7.092;2023-04-01T19:29:18;14.10;61.20
3699;DHT22;1865;50.918;7.092;2023-04-01T19:32:08;14.00;61.30
3699;DHT22;1865;50.918;7.092;2023-04-01T19:37:32;14.10;61.70
3699;DHT22;1865;50.918;7.092;2023-04-01T19:42:53;14.00;61.70
3699;DHT22;1865;50.918;7.092;2023-04-01T19:49:01;14.20;60.90
3699;DHT22;1865;50.918;7.092;2023-04-01T19:54:30;14.30;60.70
3699;DHT22;1865;50.918;7.092;2023-04-01T19:57:11;14.30;61.50
3699;DHT22;1865;50.918;7.092;2023-04-01T20:02:44;14.40;60.90
3699;DHT22;1865;50.918;7.092;2023-04-01T20:05:28;14.20;60.40
3699;DHT22;1865;50.918;7.092;2023-04-01T20:08:03;14.20;61.00
3699;DHT22;1865;50.918;7.092;2023-04-01T20:10:37;14.20;60.40
3699;DHT22;1865;50.918;7.092;2023-04-01T20:13:58;14.20;60.70
3699;DHT22;1865;50.918;7.092;2023-04-01T20:16:06;14.20;60.90
3699;DHT22;1865;50.918;7.092;2023-04-01T20:21:26;14.00;60.80
3699;DHT22;1865;50.918;7.092;2023-04-01T20:24:17;13.90;61.20
3699;DHT22;1865;50.918;7.092;2023-04-01T20:26:51;13.90;61.40
3699;DHT22;1865;50.918;7.092;2023-04-01T20:35:47;14.10;60.80
3699;DHT22;1865;50.918;7.092;2023-04-01T20:38:17;14.20;60.90
3699;DHT22;1865;50.918;7.092;2023-04-01T20:44:08;14.10;60.50
3699;DHT22;1865;50.918;7.092;2023-04-01T20:46:52;14.20;61.00
3699;DHT22;1865;50.918;7.092;2023-04-01T20:49:30;14.10;60.70
3699;DHT22;1865;50.918;7.092;2023-04-01T20:54:52;14.20;60.50
3699;DHT22;1865;50.918;7.092;2023-04-01T20:57:44;14.20;60.80
3699;DHT22;1865;50.918;7.092;2023-04-01T21:00:31;14.20;60.80
3699;DHT22;1865;50.918;7.092;2023-04-01T21:03:12;14.10;60.60
3699;DHT22;1865;50.918;7.092;2023-04-01T21:06:02;14.20;60.50
3699;DHT22;1865;50.918;7.092;2023-04-01T21:08:43;14.20;61.00
3699;DHT22;1865;50.918;7.092;2023-04-01T21:11:28;14.20;60.80
3699;DHT22;1865;50.918;7.092;2023-04-01T21:17:08;14.20;60.60
3699;DHT22;1865;50.918;7.092;2023-04-01T21:20:07;14.30;60.70
3699;DHT22;1865;50.918;7.092;2023-04-01T21:34:25;14.20;60.60
3699;DHT22;1865;50.918;7.092;2023-04-01T21:41:57;14.20;60.70
3699;DHT22;1865;50.918;7.092;2023-04-01T21:47:30;14.10;61.70
3699;DHT22;1865;50.918;7.092;2023-04-01T21:53:03;14.20;61.20
3699;DHT22;1865;50.918;7.092;2023-04-01T21:58:51;14.20;60.80
3699;DHT22;1865;50.918;7.092;2023-04-01T22:04:24;14.20;62.10
3699;DHT22;1865;50.918;7.092;2023-04-01T22:10:04;14.30;60.80
3699;DHT22;1865;50.918;7.092;2023-04-01T22:12:34;14.30;60.90
3699;DHT22;1865;50.918;7.092;2023-04-01T22:17:56;14.20;60.80
3699;DHT22;1865;50.918;7.092;2023-04-01T22:20:35;14.30;61.00
3699;DHT22;1865;50.918;7.092;2023-04-01T22:23:30;14.30;61.70
3699;DHT22;1865;50.918;7.092;2023-04-01T22:26:18;14.30;61.00
3699;DHT22;1865;50.918;7.092;2023-04-01T22:29:07;14.30;61.20
3699;DHT22;1865;50.918;7.092;2023-04-01T22:31:49;14.30;61.20
3699;DHT22;1865;50.918;7.092;2023-04-01T22:34:30;14.30;61.20
3699;DHT22;1865;50.918;7.092;2023-04-01T22:40:14;14.30;61.30
3699;DHT22;1865;50.918;7.092;2023-04-01T22:43:06;14.30;61.00
3699;DHT22;1865;50.918;7.092;2023-04-01T22:48:47;14.20;61.70
3699;DHT22;1865;50.918;7.092;2023-04-01T22:54:18;14.10;62.00
3699;DHT22;1865;50.918;7.092;2023-04-01T22:56:57;14.10;62.50
3699;DHT22;1865;50.918;7.092;2023-04-01T22:59:48;14.10;62.50
3699;DHT22;1865;50.918;7.092;2023-04-01T23:02:20;14.10;62.40
3699;DHT22;1865;50.918;7.092;2023-04-01T23:04:54;14.20;62.10
3699;DHT22;1865;50.918;7.092;2023-04-01T23:07:47;14.20;61.70
3699;DHT22;1865;50.918;7.092;2023-04-01T23:10:29;14.20;61.50
3699;DHT22;1865;50.918;7.092;2023-04-01T23:12:59;14.10;62.10
3699;DHT22;1865;50.918;7.092;2023-04-01T23:18:09;14.00;62.50
3699;DHT22;1865;50.918;7.092;2023-04-01T23:23:42;14.00;62.40
3699;DHT22;1865;50.918;7.092;2023-04-01T23:26:17;13.90;62.80
3699;DHT22;1865;50.918;7.092;2023-04-01T23:28:51;14.00;63.30
3699;DHT22;1865;50.918;7.092;2023-04-01T23:31:38;14.00;63.20
3699;DHT22;1865;50.918;7.092;2023-04-01T23:36:49;14.00;63.00
3699;DHT22;1865;50.918;7.092;2023-04-01T23:39:25;13.90;62.90
3699;DHT22;1865;50.918;7.092;2023-04-01T23:41:55;14.00;62.90
3699;DHT22;1865;50.918;7.092;2023-04-01T23:44:24;14.10;62.50
3699;DHT22;1865;50.918;7.092;2023-04-01T23:46:51;14.10;62.20
3699;DHT22;1865;50.918;7.092;2023-04-01T23:49:20;14.10;62.20
3699;DHT22;1865;50.918;7.092;2023-04-01T23:51:56;14.10;62.40
3699;DHT22;1865;50.918;7.092;2023-04-01T23:54:33;14.00;62.00
3699;DHT22;1865;50.918;7.092;2023-04-01T23:57:04;13.90;62.60
3699;DHT22;1865;50.918;7.092;2023-04-01T23:59:36;13.90;62.00
